sensor_id;sensor_type;location;lat;lon;timestamp;temperature;humidity
13052;DHT22;6592;47.484;9.726;2023-02-22T00:01:00;5.60;99.90
13052;DHT22;6592;47.484;9.726;2023-02-22T00:03:35;5.60;99.90
13052;DHT22;6592;47.484;9.726;2023-02-22T00:06:05;5.60;99.90
13052;DHT22;6592;47.484;9.726;2023-02-22T00:08:35;5.50;99.90
13052;DHT22;6592;47.484;9.726;2023-02-22T00:11:06;5.50;99.90
13052;DHT22;6592;47.484;9.726;2023-02-22T00:13:36;5.50;99.90
13052;DHT22;6592;47.484;9.726;2023-02-22T00:16:05;5.50;99.90
13052;DHT22;6592;47.484;9.726;2023-02-22T00:18:35;5.40;99.90
13052;DHT22;6592;47.484;9.726;2023-02-22T00:21:04;5.40;99.90
13052;DHT22;6592;47.484;9.726;2023-02-22T00:23:39;5.30;99.90
13052;DHT22;6592;47.484;9.726;2023-02-22T00:26:09;5.30;99.90
13052;DHT22;6592;47.484;9.726;2023-02-22T00:28:37;5.20;99.90
13052;DHT22;6592;47.484;9.726;2023-02-22T00:31:08;5.20;99.90
13052;DHT22;6592;47.484;9.726;2023-02-22T00:33:39;5.30;99.90
13052;DHT22;6592;47.484;9.726;2023-02-22T00:36:09;5.30;99.90
13052;DHT22;6592;47.484;9.726;2023-02-22T00:38:38;5.20;99.90
13052;DHT22;6592;47.484;9.726;2023-02-22T00:41:07;5.20;99.90
13052;DHT22;6592;47.484;9.726;2023-02-22T00:43:35;5.20;99.90
13052;DHT22;6592;47.484;9.726;2023-02-22T00:46:04;5.10;99.90
13052;DHT22;6592;47.484;9.726;2023-02-22T00:48:32;5.10;99.90
13052;DHT22;6592;47.484;9.726;2023-02-22T00:51:02;5.00;99.90
13052;DHT22;6592;47.484;9.726;2023-02-22T00:53:30;5.00;99.90
13052;DHT22;6592;47.484;9.726;2023-02-22T00:55:58;5.00;99.90
13052;DHT22;6592;47.484;9.726;2023-02-22T00:58:27;4.90;99.90
13052;DHT22;6592;47.484;9.726;2023-02-22T01:00:55;4.90;99.90
13052;DHT22;6592;47.484;9.726;2023-02-22T01:03:23;4.90;99.90
13052;DHT22;6592;47.484;9.726;2023-02-22T01:05:52;4.80;99.90
13052;DHT22;6592;47.484;9.726;2023-02-22T01:08:22;4.80;99.90
13052;DHT22;6592;47.484;9.726;2023-02-22T01:10:51;4.70;99.90
13052;DHT22;6592;47.484;9.726;2023-02-22T01:13:19;4.70;99.90
13052;DHT22;6592;47.484;9.726;2023-02-22T01:15:48;4.70;99.90
13052;DHT22;6592;47.484;9.726;2023-02-22T01:18:17;4.60;99.90
13052;DHT22;6592;47.484;9.726;2023-02-22T01:20:47;4.60;99.90
13052;DHT22;6592;47.484;9.726;2023-02-22T01:23:15;4.60;99.90
13052;DHT22;6592;47.484;9.726;2023-02-22T01:25:45;4.60;99.90
13052;DHT22;6592;47.484;9.726;2023-02-22T01:28:14;4.60;99.90
13052;DHT22;6592;47.484;9.726;2023-02-22T01:30:42;4.60;99.90
13052;DHT22;6592;47.484;9.726;2023-02-22T01:33:10;4.60;99.90
13052;DHT22;6592;47.484;9.726;2023-02-22T01:35:42;4.50;99.90
13052;DHT22;6592;47.484;9.726;2023-02-22T01:38:12;4.60;99.90
13052;DHT22;6592;47.484;9.726;2023-02-22T01:40:42;4.60;99.90
13052;DHT22;6592;47.484;9.726;2023-02-22T01:43:18;4.60;99.90
13052;DHT22;6592;47.484;9.726;2023-02-22T01:45:58;4.60;99.90
13052;DHT22;6592;47.484;9.726;2023-02-22T01:48:31;4.50;99.90
13052;DHT22;6592;47.484;9.726;2023-02-22T01:51:05;4.50;99.90
13052;DHT22;6592;47.484;9.726;2023-02-22T01:53:40;4.50;99.90
13052;DHT22;6592;47.484;9.726;2023-02-22T01:56:10;4.40;99.90
13052;DHT22;6592;47.484;9.726;2023-02-22T01:58:42;4.30;99.90
13052;DHT22;6592;47.484;9.726;2023-02-22T02:01:13;4.30;99.90
13052;DHT22;6592;47.484;9.726;2023-02-22T02:03:43;4.20;99.90
13052;DHT22;6592;47.484;9.726;2023-02-22T02:06:15;4.20;99.90
13052;DHT22;6592;47.484;9.726;2023-02-22T02:08:48;4.10;99.90
13052;DHT22;6592;47.484;9.726;2023-02-22T02:11:21;4.10;99.90
13052;DHT22;6592;47.484;9.726;2023-02-22T02:13:54;4.00;99.90
13052;DHT22;6592;47.484;9.726;2023-02-22T02:16:25;4.00;99.90
13052;DHT22;6592;47.484;9.726;2023-02-22T02:18:54;4.00;99.90
13052;DHT22;6592;47.484;9.726;2023-02-22T02:21:59;4.00;99.90
13052;DHT22;6592;47.484;9.726;2023-02-22T02:27:52;3.90;99.90
13052;DHT22;6592;47.484;9.726;2023-02-22T02:30:55;3.90;99.90
13052;DHT22;6592;47.484;9.726;2023-02-22T02:33:30;3.80;99.90
13052;DHT22;6592;47.484;9.726;2023-02-22T02:36:02;3.80;99.90
13052;DHT22;6592;47.484;9.726;2023-02-22T02:38:40;3.80;99.90
13052;DHT22;6592;47.484;9.726;2023-02-22T02:41:15;3.70;99.90
13052;DHT22;6592;47.484;9.726;2023-02-22T02:43:51;3.70;99.90
13052;DHT22;6592;47.484;9.726;2023-02-22T02:46:24;3.70;99.90
13052;DHT22;6592;47.484;9.726;2023-02-22T02:48:58;3.70;99.90
13052;DHT22;6592;47.484;9.726;2023-02-22T02:51:30;3.70;99.90
13052;DHT22;6592;47.484;9.726;2023-02-22T02:53:58;3.70;99.90
13052;DHT22;6592;47.484;9.726;2023-02-22T02:56:28;3.60;99.90
13052;DHT22;6592;47.484;9.726;2023-02-22T02:58:56;3.50;99.90
13052;DHT22;6592;47.484;9.726;2023-02-22T03:01:44;3.50;99.90
13052;DHT22;6592;47.484;9.726;2023-02-22T03:04:22;3.50;99.90
13052;DHT22;6592;47.484;9.726;2023-02-22T03:07:27;3.50;99.90
13052;DHT22;6592;47.484;9.726;2023-02-22T03:10:07;3.50;99.90
13052;DHT22;6592;47.484;9.726;2023-02-22T03:12:47;3.50;99.90
13052;DHT22;6592;47.484;9.726;2023-02-22T03:15:30;3.40;99.90
13052;DHT22;6592;47.484;9.726;2023-02-22T03:18:04;3.40;99.90
13052;DHT22;6592;47.484;9.726;2023-02-22T03:20:42;3.40;99.90
13052;DHT22;6592;47.484;9.726;2023-02-22T03:23:18;3.40;99.90
13052;DHT22;6592;47.484;9.726;2023-02-22T03:25:52;3.30;99.90
13052;DHT22;6592;47.484;9.726;2023-02-22T03:28:24;3.30;99.90
13052;DHT22;6592;47.484;9.726;2023-02-22T03:30:57;3.30;99.90
13052;DHT22;6592;47.484;9.726;2023-02-22T03:33:34;3.20;99.90
13052;DHT22;6592;47.484;9.726;2023-02-22T03:36:10;3.20;99.90
13052;DHT22;6592;47.484;9.726;2023-02-22T03:38:41;3.20;99.90
13052;DHT22;6592;47.484;9.726;2023-02-22T03:41:12;3.20;99.90
13052;DHT22;6592;47.484;9.726;2023-02-22T03:43:46;3.20;99.90
13052;DHT22;6592;47.484;9.726;2023-02-22T03:46:16;3.20;99.90
13052;DHT22;6592;47.484;9.726;2023-02-22T03:48:49;3.10;99.90
13052;DHT22;6592;47.484;9.726;2023-02-22T03:51:21;3.10;99.90
13052;DHT22;6592;47.484;9.726;2023-02-22T03:53:50;3.10;99.90
13052;DHT22;6592;47.484;9.726;2023-02-22T03:56:22;3.00;99.90
13052;DHT22;6592;47.484;9.726;2023-02-22T03:58:52;3.00;99.90
13052;DHT22;6592;47.484;9.726;2023-02-22T04:01:21;3.00;99.90
13052;DHT22;6592;47.484;9.726;2023-02-22T04:03:50;2.90;99.90
13052;DHT22;6592;47.484;9.726;2023-02-22T04:06:18;2.90;99.90
13052;DHT22;6592;47.484;9.726;2023-02-22T04:08:48;2.90;99.90
13052;DHT22;6592;47.484;9.726;2023-02-22T04:11:16;2.90;99.90
13052;DHT22;6592;47.484;9.726;2023-02-22T04:13:45;2.90;99.90
13052;DHT22;6592;47.484;9.726;2023-02-22T04:16:13;2.90;99.90
13052;DHT22;6592;47.484;9.726;2023-02-22T04:18:41;2.80;99.90
13052;DHT22;6592;47.484;9.726;2023-02-22T04:21:09;2.80;99.90
13052;DHT22;6592;47.484;9.726;2023-02-22T04:23:38;2.80;99.90
13052;DHT22;6592;47.484;9.726;2023-02-22T04:26:08;2.80;99.90
13052;DHT22;6592;47.484;9.726;2023-02-22T04:28:36;2.80;99.90
13052;DHT22;6592;47.484;9.726;2023-02-22T04:31:04;2.80;99.90
13052;DHT22;6592;47.484;9.726;2023-02-22T04:33:33;2.80;99.90
13052;DHT22;6592;47.484;9.726;2023-02-22T04:36:01;2.70;99.90
13052;DHT22;6592;47.484;9.726;2023-02-22T04:38:29;2.70;99.90
13052;DHT22;6592;47.484;9.726;2023-02-22T04:40:58;2.60;99.90
13052;DHT22;6592;47.484;9.726;2023-02-22T04:43:27;2.60;99.90
13052;DHT22;6592;47.484;9.726;2023-02-22T04:45:56;2.60;99.90
13052;DHT22;6592;47.484;9.726;2023-02-22T04:48:24;2.60;99.90
13052;DHT22;6592;47.484;9.726;2023-02-22T04:50:52;2.70;99.90
13052;DHT22;6592;47.484;9.726;2023-02-22T04:53:20;2.60;99.90
13052;DHT22;6592;47.484;9.726;2023-02-22T04:55:49;2.60;99.90
13052;DHT22;6592;47.484;9.726;2023-02-22T04:58:18;2.60;99.90
13052;DHT22;6592;47.484;9.726;2023-02-22T05:00:48;2.60;99.90
13052;DHT22;6592;47.484;9.726;2023-02-22T05:03:16;2.60;99.90
13052;DHT22;6592;47.484;9.726;2023-02-22T05:05:44;2.60;99.90
13052;DHT22;6592;47.484;9.726;2023-02-22T05:08:12;2.70;99.90
13052;DHT22;6592;47.484;9.726;2023-02-22T05:10:41;2.60;99.90
13052;DHT22;6592;47.484;9.726;2023-02-22T05:13:09;2.60;99.90
13052;DHT22;6592;47.484;9.726;2023-02-22T05:15:37;2.60;99.90
13052;DHT22;6592;47.484;9.726;2023-02-22T05:18:07;2.60;99.90
13052;DHT22;6592;47.484;9.726;2023-02-22T05:20:36;2.60;99.90
13052;DHT22;6592;47.484;9.726;2023-02-22T05:23:04;2.70;99.90
13052;DHT22;6592;47.484;9.726;2023-02-22T05:25:33;2.70;99.90
13052;DHT22;6592;47.484;9.726;2023-02-22T05:28:03;2.70;99.90
13052;DHT22;6592;47.484;9.726;2023-02-22T05:30:33;2.70;99.90
13052;DHT22;6592;47.484;9.726;2023-02-22T05:33:02;2.70;99.90
13052;DHT22;6592;47.484;9.726;2023-02-22T05:35:31;2.60;99.90
13052;DHT22;6592;47.484;9.726;2023-02-22T05:38:00;2.60;99.90
13052;DHT22;6592;47.484;9.726;2023-02-22T05:40:29;2.60;99.90
13052;DHT22;6592;47.484;9.726;2023-02-22T05:42:58;2.60;99.90
13052;DHT22;6592;47.484;9.726;2023-02-22T05:45:27;2.60;99.90
13052;DHT22;6592;47.484;9.726;2023-02-22T05:47:56;2.60;99.90
13052;DHT22;6592;47.484;9.726;2023-02-22T05:50:24;2.50;99.90
13052;DHT22;6592;47.484;9.726;2023-02-22T05:52:55;2.60;99.90
13052;DHT22;6592;47.484;9.726;2023-02-22T05:55:24;2.60;99.90
13052;DHT22;6592;47.484;9.726;2023-02-22T05:57:52;2.60;99.90
13052;DHT22;6592;47.484;9.726;2023-02-22T06:00:23;2.60;99.90
13052;DHT22;6592;47.484;9.726;2023-02-22T06:02:55;2.60;99.90
13052;DHT22;6592;47.484;9.726;2023-02-22T06:05:24;2.60;99.90
13052;DHT22;6592;47.484;9.726;2023-02-22T06:07:54;2.70;99.90
13052;DHT22;6592;47.484;9.726;2023-02-22T06:10:23;2.70;99.90
13052;DHT22;6592;47.484;9.726;2023-02-22T06:12:52;2.70;99.90
13052;DHT22;6592;47.484;9.726;2023-02-22T06:15:23;2.70;99.90
13052;DHT22;6592;47.484;9.726;2023-02-22T06:17:51;2.80;99.90
13052;DHT22;6592;47.484;9.726;2023-02-22T06:20:22;2.80;99.90
13052;DHT22;6592;47.484;9.726;2023-02-22T06:22:52;2.90;99.90
13052;DHT22;6592;47.484;9.726;2023-02-22T06:25:24;2.90;99.90
13052;DHT22;6592;47.484;9.726;2023-02-22T06:27:52;3.00;99.90
13052;DHT22;6592;47.484;9.726;2023-02-22T06:30:22;3.10;99.90
13052;DHT22;6592;47.484;9.726;2023-02-22T06:32:51;3.10;99.90
13052;DHT22;6592;47.484;9.726;2023-02-22T06:35:20;3.20;99.90
13052;DHT22;6592;47.484;9.726;2023-02-22T06:37:48;3.20;99.90
13052;DHT22;6592;47.484;9.726;2023-02-22T06:40:17;3.20;99.90
13052;DHT22;6592;47.484;9.726;2023-02-22T06:42:48;3.30;99.90
13052;DHT22;6592;47.484;9.726;2023-02-22T06:45:17;3.30;99.90
13052;DHT22;6592;47.484;9.726;2023-02-22T06:47:45;3.30;99.90
13052;DHT22;6592;47.484;9.726;2023-02-22T06:50:20;3.40;99.90
13052;DHT22;6592;47.484;9.726;2023-02-22T06:52:49;3.40;99.90
13052;DHT22;6592;47.484;9.726;2023-02-22T06:55:19;3.50;99.90
13052;DHT22;6592;47.484;9.726;2023-02-22T06:57:49;3.60;99.90
13052;DHT22;6592;47.484;9.726;2023-02-22T07:00:19;3.70;99.90
13052;DHT22;6592;47.484;9.726;2023-02-22T07:02:48;3.80;99.90
13052;DHT22;6592;47.484;9.726;2023-02-22T07:05:17;3.80;99.90
13052;DHT22;6592;47.484;9.726;2023-02-22T07:07:47;3.90;99.90
13052;DHT22;6592;47.484;9.726;2023-02-22T07:10:18;4.00;99.90
13052;DHT22;6592;47.484;9.726;2023-02-22T07:12:49;4.00;99.90
13052;DHT22;6592;47.484;9.726;2023-02-22T07:15:19;4.10;99.90
13052;DHT22;6592;47.484;9.726;2023-02-22T07:17:49;4.20;99.90
13052;DHT22;6592;47.484;9.726;2023-02-22T07:20:18;4.20;99.90
13052;DHT22;6592;47.484;9.726;2023-02-22T07:22:48;4.30;99.90
13052;DHT22;6592;47.484;9.726;2023-02-22T07:25:17;4.40;99.90
13052;DHT22;6592;47.484;9.726;2023-02-22T07:27:46;4.50;99.90
13052;DHT22;6592;47.484;9.726;2023-02-22T07:30:18;4.60;99.90
13052;DHT22;6592;47.484;9.726;2023-02-22T07:32:46;4.70;99.90
13052;DHT22;6592;47.484;9.726;2023-02-22T07:35:16;4.80;99.90
13052;DHT22;6592;47.484;9.726;2023-02-22T07:37:45;4.90;99.90
13052;DHT22;6592;47.484;9.726;2023-02-22T07:40:14;5.00;99.90
13052;DHT22;6592;47.484;9.726;2023-02-22T07:42:54;5.10;99.90
13052;DHT22;6592;47.484;9.726;2023-02-22T07:45:25;5.20;99.90
13052;DHT22;6592;47.484;9.726;2023-02-22T07:47:54;5.30;99.90
13052;DHT22;6592;47.484;9.726;2023-02-22T07:50:24;5.40;99.90
13052;DHT22;6592;47.484;9.726;2023-02-22T07:52:54;5.50;99.90
13052;DHT22;6592;47.484;9.726;2023-02-22T07:55:24;5.60;99.90
13052;DHT22;6592;47.484;9.726;2023-02-22T07:57:56;5.80;99.90
13052;DHT22;6592;47.484;9.726;2023-02-22T08:00:28;6.00;99.90
13052;DHT22;6592;47.484;9.726;2023-02-22T08:02:56;6.20;99.90
13052;DHT22;6592;47.484;9.726;2023-02-22T08:05:27;6.40;99.90
13052;DHT22;6592;47.484;9.726;2023-02-22T08:07:55;6.60;99.90
13052;DHT22;6592;47.484;9.726;2023-02-22T08:10:25;7.00;99.90
13052;DHT22;6592;47.484;9.726;2023-02-22T08:12:55;7.30;99.90
13052;DHT22;6592;47.484;9.726;2023-02-22T08:15:26;7.50;99.90
13052;DHT22;6592;47.484;9.726;2023-02-22T08:17:56;7.70;99.90
13052;DHT22;6592;47.484;9.726;2023-02-22T08:20:24;7.90;99.90
13052;DHT22;6592;47.484;9.726;2023-02-22T08:22:53;8.10;99.90
13052;DHT22;6592;47.484;9.726;2023-02-22T08:25:25;8.30;99.90
13052;DHT22;6592;47.484;9.726;2023-02-22T08:27:57;8.40;99.90
13052;DHT22;6592;47.484;9.726;2023-02-22T08:30:32;8.50;99.90
13052;DHT22;6592;47.484;9.726;2023-02-22T08:33:01;8.70;99.90
13052;DHT22;6592;47.484;9.726;2023-02-22T08:35:31;8.80;99.90
13052;DHT22;6592;47.484;9.726;2023-02-22T08:38:01;8.90;99.90
13052;DHT22;6592;47.484;9.726;2023-02-22T08:40:31;9.10;99.90
13052;DHT22;6592;47.484;9.726;2023-02-22T08:43:00;9.40;99.90
13052;DHT22;6592;47.484;9.726;2023-02-22T08:45:29;9.50;99.90
13052;DHT22;6592;47.484;9.726;2023-02-22T08:47:58;9.90;99.90
13052;DHT22;6592;47.484;9.726;2023-02-22T08:50:29;10.20;99.90
13052;DHT22;6592;47.484;9.726;2023-02-22T08:53:01;10.40;99.90
13052;DHT22;6592;47.484;9.726;2023-02-22T08:55:32;10.60;99.90
13052;DHT22;6592;47.484;9.726;2023-02-22T08:58:01;11.00;99.90
13052;DHT22;6592;47.484;9.726;2023-02-22T09:00:32;11.40;99.90
13052;DHT22;6592;47.484;9.726;2023-02-22T09:03:01;11.80;99.90
13052;DHT22;6592;47.484;9.726;2023-02-22T09:05:30;12.40;99.90
13052;DHT22;6592;47.484;9.726;2023-02-22T09:07:58;13.00;99.90
13052;DHT22;6592;47.484;9.726;2023-02-22T09:10:29;13.60;99.90
13052;DHT22;6592;47.484;9.726;2023-02-22T09:12:57;14.40;99.90
13052;DHT22;6592;47.484;9.726;2023-02-22T09:15:28;14.80;99.90
13052;DHT22;6592;47.484;9.726;2023-02-22T09:17:58;15.40;99.90
13052;DHT22;6592;47.484;9.726;2023-02-22T09:20:26;16.20;99.90
13052;DHT22;6592;47.484;9.726;2023-02-22T09:22:55;17.00;99.90
13052;DHT22;6592;47.484;9.726;2023-02-22T09:25:23;17.70;99.40
13052;DHT22;6592;47.484;9.726;2023-02-22T09:27:54;18.70;96.20
13052;DHT22;6592;47.484;9.726;2023-02-22T09:30:24;19.60;93.60
13052;DHT22;6592;47.484;9.726;2023-02-22T09:32:55;20.50;86.50
13052;DHT22;6592;47.484;9.726;2023-02-22T09:35:26;21.30;82.70
13052;DHT22;6592;47.484;9.726;2023-02-22T09:37:55;21.70;74.00
13052;DHT22;6592;47.484;9.726;2023-02-22T09:40:25;21.90;73.90
13052;DHT22;6592;47.484;9.726;2023-02-22T09:43:04;22.10;70.60
13052;DHT22;6592;47.484;9.726;2023-02-22T09:45:40;22.10;65.50
13052;DHT22;6592;47.484;9.726;2023-02-22T09:48:15;22.20;63.20
13052;DHT22;6592;47.484;9.726;2023-02-22T09:50:51;21.60;64.50
13052;DHT22;6592;47.484;9.726;2023-02-22T09:53:23;22.00;63.60
13052;DHT22;6592;47.484;9.726;2023-02-22T09:55:58;23.10;60.50
13052;DHT22;6592;47.484;9.726;2023-02-22T09:58:34;24.10;55.60
13052;DHT22;6592;47.484;9.726;2023-02-22T10:01:18;24.90;53.40
13052;DHT22;6592;47.484;9.726;2023-02-22T10:03:53;25.30;50.90
13052;DHT22;6592;47.484;9.726;2023-02-22T10:06:25;25.30;51.60
13052;DHT22;6592;47.484;9.726;2023-02-22T10:08:57;25.70;50.20
13052;DHT22;6592;47.484;9.726;2023-02-22T10:11:39;26.20;48.90
13052;DHT22;6592;47.484;9.726;2023-02-22T10:17:17;26.10;50.40
13052;DHT22;6592;47.484;9.726;2023-02-22T10:19:56;26.50;50.80
13052;DHT22;6592;47.484;9.726;2023-02-22T10:22:54;26.40;50.60
13052;DHT22;6592;47.484;9.726;2023-02-22T10:25:25;26.40;50.20
13052;DHT22;6592;47.484;9.726;2023-02-22T10:27:56;26.20;51.10
13052;DHT22;6592;47.484;9.726;2023-02-22T10:30:29;25.80;51.30
13052;DHT22;6592;47.484;9.726;2023-02-22T10:33:07;25.80;51.40
13052;DHT22;6592;47.484;9.726;2023-02-22T10:35:38;26.50;50.90
13052;DHT22;6592;47.484;9.726;2023-02-22T10:38:15;27.30;50.10
13052;DHT22;6592;47.484;9.726;2023-02-22T10:40:47;27.80;47.50
13052;DHT22;6592;47.484;9.726;2023-02-22T10:43:16;27.20;47.30
13052;DHT22;6592;47.484;9.726;2023-02-22T10:45:44;27.10;47.60
13052;DHT22;6592;47.484;9.726;2023-02-22T10:48:15;27.20;47.20
13052;DHT22;6592;47.484;9.726;2023-02-22T10:50:46;26.80;46.70
13052;DHT22;6592;47.484;9.726;2023-02-22T10:53:17;25.80;46.90
13052;DHT22;6592;47.484;9.726;2023-02-22T10:56:10;25.30;49.90
13052;DHT22;6592;47.484;9.726;2023-02-22T10:58:41;24.80;49.20
13052;DHT22;6592;47.484;9.726;2023-02-22T11:01:22;24.50;49.90
13052;DHT22;6592;47.484;9.726;2023-02-22T11:04:01;24.50;50.30
13052;DHT22;6592;47.484;9.726;2023-02-22T11:06:31;25.40;50.00
13052;DHT22;6592;47.484;9.726;2023-02-22T11:09:10;26.60;48.50
13052;DHT22;6592;47.484;9.726;2023-02-22T11:11:40;27.80;47.70
13052;DHT22;6592;47.484;9.726;2023-02-22T11:14:10;28.30;46.70
13052;DHT22;6592;47.484;9.726;2023-02-22T11:16:41;28.60;45.10
13052;DHT22;6592;47.484;9.726;2023-02-22T11:19:17;28.40;45.40
13052;DHT22;6592;47.484;9.726;2023-02-22T11:21:47;28.10;45.20
13052;DHT22;6592;47.484;9.726;2023-02-22T11:24:20;28.80;45.80
13052;DHT22;6592;47.484;9.726;2023-02-22T11:26:53;28.80;44.40
13052;DHT22;6592;47.484;9.726;2023-02-22T11:29:25;28.90;44.60
13052;DHT22;6592;47.484;9.726;2023-02-22T11:31:54;29.40;44.00
13052;DHT22;6592;47.484;9.726;2023-02-22T11:34:32;29.50;44.20
13052;DHT22;6592;47.484;9.726;2023-02-22T11:37:30;29.70;44.00
13052;DHT22;6592;47.484;9.726;2023-02-22T11:40:13;30.00;41.80
13052;DHT22;6592;47.484;9.726;2023-02-22T11:42:44;30.00;42.00
13052;DHT22;6592;47.484;9.726;2023-02-22T11:45:14;30.10;42.60
13052;DHT22;6592;47.484;9.726;2023-02-22T11:47:53;30.70;42.70
13052;DHT22;6592;47.484;9.726;2023-02-22T11:50:27;30.80;41.10
13052;DHT22;6592;47.484;9.726;2023-02-22T11:53:15;31.50;40.50
13052;DHT22;6592;47.484;9.726;2023-02-22T11:55:59;31.60;39.40
13052;DHT22;6592;47.484;9.726;2023-02-22T11:58:42;31.70;40.70
13052;DHT22;6592;47.484;9.726;2023-02-22T12:01:21;31.80;40.20
13052;DHT22;6592;47.484;9.726;2023-02-22T12:04:21;31.60;40.00
13052;DHT22;6592;47.484;9.726;2023-02-22T12:07:09;31.90;39.00
13052;DHT22;6592;47.484;9.726;2023-02-22T12:09:45;32.30;38.50
13052;DHT22;6592;47.484;9.726;2023-02-22T12:12:23;32.40;37.60
13052;DHT22;6592;47.484;9.726;2023-02-22T12:14:59;32.30;38.40
13052;DHT22;6592;47.484;9.726;2023-02-22T12:17:46;32.20;38.90
13052;DHT22;6592;47.484;9.726;2023-02-22T12:20:29;32.30;38.30
13052;DHT22;6592;47.484;9.726;2023-02-22T12:23:04;32.20;37.40
13052;DHT22;6592;47.484;9.726;2023-02-22T12:25:36;31.90;37.20
13052;DHT22;6592;47.484;9.726;2023-02-22T12:28:17;31.10;38.00
13052;DHT22;6592;47.484;9.726;2023-02-22T12:30:58;31.00;38.90
13052;DHT22;6592;47.484;9.726;2023-02-22T12:33:37;30.70;38.80
13052;DHT22;6592;47.484;9.726;2023-02-22T12:36:11;30.10;39.70
13052;DHT22;6592;47.484;9.726;2023-02-22T12:38:42;29.60;40.20
13052;DHT22;6592;47.484;9.726;2023-02-22T12:41:19;29.90;40.60
13052;DHT22;6592;47.484;9.726;2023-02-22T12:43:53;30.30;39.40
13052;DHT22;6592;47.484;9.726;2023-02-22T12:46:29;30.60;39.30
13052;DHT22;6592;47.484;9.726;2023-02-22T12:49:05;30.40;39.10
13052;DHT22;6592;47.484;9.726;2023-02-22T12:51:41;30.40;39.30
13052;DHT22;6592;47.484;9.726;2023-02-22T12:54:15;30.20;39.40
13052;DHT22;6592;47.484;9.726;2023-02-22T12:56:52;29.30;40.80
13052;DHT22;6592;47.484;9.726;2023-02-22T12:59:28;28.80;41.80
13052;DHT22;6592;47.484;9.726;2023-02-22T13:01:59;28.60;42.30
13052;DHT22;6592;47.484;9.726;2023-02-22T13:04:28;28.30;42.00
13052;DHT22;6592;47.484;9.726;2023-02-22T13:07:14;27.60;42.70
13052;DHT22;6592;47.484;9.726;2023-02-22T13:10:12;26.60;44.10
13052;DHT22;6592;47.484;9.726;2023-02-22T13:12:53;26.00;45.20
13052;DHT22;6592;47.484;9.726;2023-02-22T13:15:29;25.80;45.80
13052;DHT22;6592;47.484;9.726;2023-02-22T13:18:07;25.60;45.90
13052;DHT22;6592;47.484;9.726;2023-02-22T13:20:40;25.50;46.40
13052;DHT22;6592;47.484;9.726;2023-02-22T13:23:16;25.60;46.40
13052;DHT22;6592;47.484;9.726;2023-02-22T13:25:50;25.90;46.60
13052;DHT22;6592;47.484;9.726;2023-02-22T13:28:29;26.20;46.50
13052;DHT22;6592;47.484;9.726;2023-02-22T13:31:21;26.80;46.00
13052;DHT22;6592;47.484;9.726;2023-02-22T13:34:10;27.60;45.20
13052;DHT22;6592;47.484;9.726;2023-02-22T13:36:59;28.20;44.30
13052;DHT22;6592;47.484;9.726;2023-02-22T13:39:55;28.90;43.60
13052;DHT22;6592;47.484;9.726;2023-02-22T13:42:52;29.40;42.50
13052;DHT22;6592;47.484;9.726;2023-02-22T13:48:26;29.70;42.10
13052;DHT22;6592;47.484;9.726;2023-02-22T13:51:20;29.90;42.10
13052;DHT22;6592;47.484;9.726;2023-02-22T13:53:51;30.00;41.60
13052;DHT22;6592;47.484;9.726;2023-02-22T13:56:22;30.00;42.50
13052;DHT22;6592;47.484;9.726;2023-02-22T13:58:53;30.20;42.20
13052;DHT22;6592;47.484;9.726;2023-02-22T14:01:41;30.40;42.00
13052;DHT22;6592;47.484;9.726;2023-02-22T14:04:34;30.70;41.10
13052;DHT22;6592;47.484;9.726;2023-02-22T14:10:48;31.20;40.40
13052;DHT22;6592;47.484;9.726;2023-02-22T14:13:17;31.00;40.30
13052;DHT22;6592;47.484;9.726;2023-02-22T14:16:17;30.80;41.30
13052;DHT22;6592;47.484;9.726;2023-02-22T14:18:49;31.00;40.30
13052;DHT22;6592;47.484;9.726;2023-02-22T14:21:19;30.80;40.20
13052;DHT22;6592;47.484;9.726;2023-02-22T14:23:48;30.70;41.00
13052;DHT22;6592;47.484;9.726;2023-02-22T14:26:24;30.60;41.10
13052;DHT22;6592;47.484;9.726;2023-02-22T14:28:55;30.40;41.30
13052;DHT22;6592;47.484;9.726;2023-02-22T14:31:26;30.40;40.90
13052;DHT22;6592;47.484;9.726;2023-02-22T14:34:10;30.40;41.40
13052;DHT22;6592;47.484;9.726;2023-02-22T14:36:46;30.30;41.20
13052;DHT22;6592;47.484;9.726;2023-02-22T14:39:28;30.10;41.30
13052;DHT22;6592;47.484;9.726;2023-02-22T14:42:04;29.80;41.40
13052;DHT22;6592;47.484;9.726;2023-02-22T14:44:37;29.60;41.70
13052;DHT22;6592;47.484;9.726;2023-02-22T14:47:12;29.50;42.00
13052;DHT22;6592;47.484;9.726;2023-02-22T14:49:44;29.50;42.20
13052;DHT22;6592;47.484;9.726;2023-02-22T14:52:20;29.40;42.00
13052;DHT22;6592;47.484;9.726;2023-02-22T14:55:03;29.00;42.70
13052;DHT22;6592;47.484;9.726;2023-02-22T14:57:45;28.70;42.70
13052;DHT22;6592;47.484;9.726;2023-02-22T15:00:27;28.70;42.90
13052;DHT22;6592;47.484;9.726;2023-02-22T15:03:03;28.80;43.20
13052;DHT22;6592;47.484;9.726;2023-02-22T15:05:35;28.40;43.00
13052;DHT22;6592;47.484;9.726;2023-02-22T15:08:06;27.90;43.30
13052;DHT22;6592;47.484;9.726;2023-02-22T15:10:39;27.10;43.90
13052;DHT22;6592;47.484;9.726;2023-02-22T15:13:17;26.40;44.60
13052;DHT22;6592;47.484;9.726;2023-02-22T15:15:47;25.60;46.10
13052;DHT22;6592;47.484;9.726;2023-02-22T15:18:22;24.70;47.70
13052;DHT22;6592;47.484;9.726;2023-02-22T15:20:56;24.10;48.40
13052;DHT22;6592;47.484;9.726;2023-02-22T15:23:27;23.50;48.90
13052;DHT22;6592;47.484;9.726;2023-02-22T15:25:59;23.20;49.50
13052;DHT22;6592;47.484;9.726;2023-02-22T15:28:30;23.00;49.80
13052;DHT22;6592;47.484;9.726;2023-02-22T15:31:22;22.70;50.40
13052;DHT22;6592;47.484;9.726;2023-02-22T15:33:51;22.50;51.50
13052;DHT22;6592;47.484;9.726;2023-02-22T15:36:24;22.30;51.40
13052;DHT22;6592;47.484;9.726;2023-02-22T15:38:53;22.00;51.80
13052;DHT22;6592;47.484;9.726;2023-02-22T15:41:27;21.70;51.70
13052;DHT22;6592;47.484;9.726;2023-02-22T15:44:03;21.40;52.50
13052;DHT22;6592;47.484;9.726;2023-02-22T15:46:48;21.00;53.50
13052;DHT22;6592;47.484;9.726;2023-02-22T15:49:20;20.60;53.70
13052;DHT22;6592;47.484;9.726;2023-02-22T15:52:02;20.30;54.60
13052;DHT22;6592;47.484;9.726;2023-02-22T15:54:38;20.00;55.00
13052;DHT22;6592;47.484;9.726;2023-02-22T15:57:08;19.60;55.50
13052;DHT22;6592;47.484;9.726;2023-02-22T15:59:46;19.30;56.10
13052;DHT22;6592;47.484;9.726;2023-02-22T16:02:31;19.10;56.90
13052;DHT22;6592;47.484;9.726;2023-02-22T16:05:03;18.70;58.20
13052;DHT22;6592;47.484;9.726;2023-02-22T16:07:34;18.50;58.00
13052;DHT22;6592;47.484;9.726;2023-02-22T16:10:07;18.20;59.90
13052;DHT22;6592;47.484;9.726;2023-02-22T16:12:44;17.90;60.30
13052;DHT22;6592;47.484;9.726;2023-02-22T16:15:17;17.80;60.80
13052;DHT22;6592;47.484;9.726;2023-02-22T16:17:45;17.60;60.80
13052;DHT22;6592;47.484;9.726;2023-02-22T16:20:33;17.40;61.80
13052;DHT22;6592;47.484;9.726;2023-02-22T16:23:22;17.20;62.50
13052;DHT22;6592;47.484;9.726;2023-02-22T16:26:05;17.00;62.90
13052;DHT22;6592;47.484;9.726;2023-02-22T16:28:34;16.80;64.40
13052;DHT22;6592;47.484;9.726;2023-02-22T16:31:04;16.60;64.70
13052;DHT22;6592;47.484;9.726;2023-02-22T16:33:32;16.30;65.60
13052;DHT22;6592;47.484;9.726;2023-02-22T16:36:05;16.10;66.70
13052;DHT22;6592;47.484;9.726;2023-02-22T16:38:34;15.90;67.50
13052;DHT22;6592;47.484;9.726;2023-02-22T16:41:05;15.70;68.40
13052;DHT22;6592;47.484;9.726;2023-02-22T16:43:34;15.50;69.00
13052;DHT22;6592;47.484;9.726;2023-02-22T16:46:04;15.40;69.70